Time;durP1;ratioP1;P1;durP2;ratioP2;P2;SDS_P1;SDS_P2;PMS_P1;PMS_P2;Temp;Humidity;BMP_temperature;BMP_pressure;BME280_temperature;BME280_humidity;BME280_pressure;Samples;Min_cycle;Max_cycle;Signal;HPM_P1;HPM_P2
2023/02/24 00:01:23;;;;;;;5.97;5.28;;;;;;;;;;2094406;28;20485;-67
2023/02/24 00:02:44;;;;;;;5.97;5.50;;;;;;;;;;2094877;28;20040;-67
2023/02/24 00:04:06;;;;;;;6.43;5.93;;;;;;;;;;2095813;28;20028;-67
2023/02/24 00:05:25;;;;;;;6.93;6.25;;;;;;;;;;2086386;28;20029;-67
2023/02/24 00:06:43;;;;;;;6.43;5.82;;;;;;;;;;2093189;28;20026;-68
2023/02/24 00:08:02;;;;;;;6.05;5.53;;;;;;;;;;2096843;28;20103;-67
2023/02/24 00:09:24;;;;;;;6.45;4.80;;;;;;;;;;2096158;28;20108;-68
2023/02/24 00:10:44;;;;;;;6.55;5.28;;;;;;;;;;2095887;28;20052;-68
2023/02/24 00:12:09;;;;;;;5.63;5.13;;;;;;;;;;2096511;28;20036;-68
2023/02/24 00:13:28;;;;;;;4.80;4.38;;;;;;;;;;2095265;28;20025;-68
2023/02/24 00:14:47;;;;;;;4.72;4.35;;;;;;;;;;2098095;28;20044;-67
2023/02/24 00:16:06;;;;;;;4.53;4.13;;;;;;;;;;2094883;28;20036;-68
2023/02/24 00:17:29;;;;;;;4.88;4.47;;;;;;;;;;2096125;28;20032;-68
2023/02/24 00:18:48;;;;;;;5.15;4.20;;;;;;;;;;2097189;28;20020;-68
2023/02/24 00:20:10;;;;;;;5.82;4.53;;;;;;;;;;2095917;28;20028;-68
2023/02/24 00:21:29;;;;;;;5.05;4.60;;;;;;;;;;2092539;28;20410;-68
2023/02/24 00:22:49;;;;;;;4.65;4.35;;;;;;;;;;2094914;28;20021;-68
2023/02/24 00:24:08;;;;;;;5.30;4.85;;;;;;;;;;2093876;28;20047;-68
2023/02/24 00:25:27;;;;;;;5.70;5.00;;;;;;;;;;2091076;28;20426;-68
2023/02/24 00:26:53;;;;;;;5.60;5.15;;;;;;;;;;2096152;28;20037;-68
2023/02/24 00:28:13;;;;;;;5.40;4.65;;;;;;;;;;2095619;28;21415;-68
2023/02/24 00:29:32;;;;;;;4.15;3.85;;;;;;;;;;2095895;28;20048;-68
2023/02/24 00:30:51;;;;;;;5.03;4.38;;;;;;;;;;2095870;28;20029;-68
2023/02/24 00:32:13;;;;;;;4.22;3.90;;;;;;;;;;2096951;28;20029;-68
2023/02/24 00:33:33;;;;;;;4.90;4.50;;;;;;;;;;2096277;28;20064;-68
2023/02/24 00:34:52;;;;;;;4.40;4.10;;;;;;;;;;2096722;28;20493;-67
2023/02/24 00:36:15;;;;;;;4.07;3.72;;;;;;;;;;2096623;28;20119;-67
2023/02/24 00:37:34;;;;;;;4.10;3.80;;;;;;;;;;2097419;28;20025;-67
2023/02/24 00:38:54;;;;;;;4.28;3.70;;;;;;;;;;2094848;28;20028;-67
2023/02/24 00:40:14;;;;;;;4.47;4.07;;;;;;;;;;2095786;28;20029;-67
2023/02/24 00:41:34;;;;;;;4.75;4.45;;;;;;;;;;2096094;28;20028;-68
2023/02/24 00:42:53;;;;;;;3.97;3.67;;;;;;;;;;2095436;28;20028;-67
2023/02/24 00:44:13;;;;;;;4.03;3.65;;;;;;;;;;2098140;28;20021;-67
2023/02/24 00:45:35;;;;;;;4.20;3.90;;;;;;;;;;2096727;28;20128;-67
2023/02/24 00:46:53;;;;;;;4.20;3.90;;;;;;;;;;2096937;28;20548;-67
2023/02/24 00:48:14;;;;;;;4.00;3.70;;;;;;;;;;2095897;28;20029;-67
2023/02/24 00:49:34;;;;;;;4.38;3.97;;;;;;;;;;2097500;28;20560;-68
2023/02/24 00:50:53;;;;;;;3.95;3.65;;;;;;;;;;2096351;28;20036;-67
2023/02/24 00:52:21;;;;;;;4.80;4.38;;;;;;;;;;2097085;28;20037;-67
2023/02/24 00:53:40;;;;;;;4.88;4.43;;;;;;;;;;2096413;28;20041;-67
2023/02/24 00:54:59;;;;;;;4.68;4.25;;;;;;;;;;2096385;28;20029;-67
2023/02/24 00:56:19;;;;;;;4.88;4.30;;;;;;;;;;2095333;28;20025;-68
2023/02/24 00:57:39;;;;;;;4.50;4.10;;;;;;;;;;2097301;28;20032;-67
2023/02/24 00:58:59;;;;;;;5.10;4.70;;;;;;;;;;2095114;28;20497;-67
2023/02/24 01:00:18;;;;;;;4.95;4.53;;;;;;;;;;2096884;28;20037;-67
2023/02/24 01:01:37;;;;;;;5.25;4.85;;;;;;;;;;2097140;28;20411;-67
2023/02/24 01:02:58;;;;;;;5.00;4.60;;;;;;;;;;2096493;28;20085;-67
2023/02/24 01:04:18;;;;;;;4.32;3.92;;;;;;;;;;2096268;28;20056;-67
2023/02/24 01:05:37;;;;;;;3.97;3.67;;;;;;;;;;2096129;28;20397;-67
2023/02/24 01:06:59;;;;;;;3.65;3.45;;;;;;;;;;2096460;28;20013;-67
2023/02/24 01:08:22;;;;;;;3.92;3.63;;;;;;;;;;2096524;28;20397;-67
2023/02/24 01:09:41;;;;;;;3.67;3.38;;;;;;;;;;2086252;28;20511;-67
2023/02/24 01:12:48;;;;;;;3.60;3.40;;;;;;;;;;2096302;28;20017;-67
2023/02/24 01:14:12;;;;;;;3.35;3.15;;;;;;;;;;2096408;28;20115;-67
2023/02/24 01:15:31;;;;;;;3.85;3.55;;;;;;;;;;2096381;28;20147;-67
2023/02/24 01:16:50;;;;;;;4.28;3.90;;;;;;;;;;2096347;28;20037;-67
2023/02/24 01:18:09;;;;;;;4.07;3.47;;;;;;;;;;2097231;28;20040;-67
2023/02/24 01:19:30;;;;;;;4.15;3.75;;;;;;;;;;2096733;28;20025;-67
2023/02/24 01:20:49;;;;;;;4.63;4.22;;;;;;;;;;2094757;28;20020;-67
2023/02/24 01:22:08;;;;;;;3.83;3.53;;;;;;;;;;2096517;28;20037;-67
2023/02/24 01:23:27;;;;;;;4.00;3.70;;;;;;;;;;2085561;28;20025;-67
2023/02/24 01:24:47;;;;;;;4.07;3.70;;;;;;;;;;2089950;28;20100;-67
2023/02/24 01:26:06;;;;;;;3.88;3.53;;;;;;;;;;2095343;28;20021;-67
2023/02/24 01:27:24;;;;;;;4.20;3.70;;;;;;;;;;2095548;28;20052;-67
2023/02/24 01:28:47;;;;;;;4.15;3.33;;;;;;;;;;2093675;28;20067;-67
2023/02/24 01:30:14;;;;;;;3.50;3.25;;;;;;;;;;2095512;28;20032;-67
2023/02/24 01:31:33;;;;;;;3.85;3.50;;;;;;;;;;2095584;28;20540;-67
2023/02/24 01:32:52;;;;;;;4.07;3.80;;;;;;;;;;2094773;28;20068;-68
2023/02/24 01:34:11;;;;;;;4.95;4.38;;;;;;;;;;2095830;28;20029;-67
2023/02/24 01:35:33;;;;;;;4.18;3.88;;;;;;;;;;2095630;28;20497;-67
2023/02/24 01:36:52;;;;;;;4.82;4.43;;;;;;;;;;2097585;28;20024;-67
2023/02/24 01:38:11;;;;;;;3.95;3.65;;;;;;;;;;2097306;28;20112;-67
2023/02/24 01:39:31;;;;;;;4.20;3.60;;;;;;;;;;2097876;28;20020;-67
2023/02/24 01:40:58;;;;;;;3.97;3.63;;;;;;;;;;2094143;28;20032;-67
2023/02/24 01:42:18;;;;;;;5.30;3.50;;;;;;;;;;2095547;28;20474;-68
2023/02/24 01:43:57;;;;;;;3.45;3.15;;;;;;;;;;2095962;28;20401;-67
2023/02/24 01:45:21;;;;;;;3.40;3.05;;;;;;;;;;2095194;28;20016;-68
2023/02/24 01:46:41;;;;;;;4.25;3.83;;;;;;;;;;2095487;28;20485;-67
2023/02/24 01:48:02;;;;;;;5.22;4.10;;;;;;;;;;2097857;28;20052;-67
2023/02/24 01:49:28;;;;;;;3.90;3.60;;;;;;;;;;2096336;28;20028;-67
2023/02/24 01:50:49;;;;;;;4.20;3.90;;;;;;;;;;2096364;28;20485;-67
2023/02/24 01:52:11;;;;;;;4.55;4.15;;;;;;;;;;2095177;28;20107;-67
2023/02/24 01:53:30;;;;;;;4.30;3.90;;;;;;;;;;2095177;28;20078;-67
2023/02/24 01:54:53;;;;;;;4.00;3.70;;;;;;;;;;2095313;28;20044;-67
2023/02/24 01:56:14;;;;;;;3.78;3.47;;;;;;;;;;2095285;28;20400;-67
2023/02/24 01:57:35;;;;;;;4.43;3.75;;;;;;;;;;2094843;28;20115;-67
2023/02/24 01:58:55;;;;;;;4.13;3.83;;;;;;;;;;2093616;28;20021;-67
2023/02/24 02:00:59;;;;;;;4.32;4.00;;;;;;;;;;2095137;28;20448;-67
2023/02/24 02:01:57;;;;;;;4.90;4.40;;;;;;;;;;2093252;28;20033;-68
2023/02/24 02:03:25;;;;;;;4.65;4.20;;;;;;;;;;2095271;28;20032;-68
2023/02/24 02:04:47;;;;;;;4.50;4.20;;;;;;;;;;2097040;28;20103;-68
2023/02/24 02:06:10;;;;;;;4.07;3.77;;;;;;;;;;2095973;28;20103;-68
2023/02/24 02:07:29;;;;;;;3.95;3.65;;;;;;;;;;2093815;28;20610;-68
2023/02/24 02:08:48;;;;;;;4.20;3.90;;;;;;;;;;2096092;28;20028;-67
2023/02/24 02:10:08;;;;;;;4.13;3.78;;;;;;;;;;2095354;28;20385;-67
2023/02/24 02:11:27;;;;;;;3.80;3.60;;;;;;;;;;2094914;28;20028;-68
2023/02/24 02:12:46;;;;;;;4.13;3.80;;;;;;;;;;2096016;28;20047;-67
2023/02/24 02:14:05;;;;;;;4.25;3.88;;;;;;;;;;2096341;28;20028;-68
2023/02/24 02:15:24;;;;;;;4.38;4.07;;;;;;;;;;2094875;28;21730;-68
2023/02/24 02:16:46;;;;;;;4.68;4.38;;;;;;;;;;2095432;28;20064;-68
2023/02/24 02:18:15;;;;;;;4.63;4.22;;;;;;;;;;2087293;28;20104;-68
2023/02/24 02:19:34;;;;;;;4.55;4.25;;;;;;;;;;2093569;28;20919;-67
2023/02/24 02:21:08;;;;;;;4.68;4.25;;;;;;;;;;2095824;28;20024;-67
2023/02/24 02:22:46;;;;;;;4.10;3.80;;;;;;;;;;2095865;28;20131;-68
2023/02/24 02:24:08;;;;;;;4.45;4.05;;;;;;;;;;2096452;28;20029;-67
2023/02/24 02:25:45;;;;;;;5.13;4.25;;;;;;;;;;2094153;28;20385;-68
2023/02/24 02:27:23;;;;;;;6.35;4.30;;;;;;;;;;2095105;28;20024;-67
2023/02/24 02:28:48;;;;;;;4.00;3.70;;;;;;;;;;2096540;28;20446;-68
2023/02/24 02:30:27;;;;;;;4.15;3.85;;;;;;;;;;2096171;28;20036;-67
2023/02/24 02:31:55;;;;;;;4.20;3.83;;;;;;;;;;2094767;28;20024;-67
2023/02/24 02:33:20;;;;;;;4.03;3.72;;;;;;;;;;2095870;28;20033;-67
2023/02/24 02:34:49;;;;;;;4.10;3.80;;;;;;;;;;2096209;28;20037;-68
2023/02/24 02:36:25;;;;;;;3.65;3.38;;;;;;;;;;2094579;28;20492;-67
2023/02/24 02:37:44;;;;;;;3.72;3.42;;;;;;;;;;2094997;28;20037;-67
2023/02/24 02:39:03;;;;;;;4.10;3.80;;;;;;;;;;2096353;28;20040;-67
2023/02/24 02:40:26;;;;;;;3.78;3.47;;;;;;;;;;2095977;28;20025;-68
2023/02/24 02:42:03;;;;;;;4.07;3.78;;;;;;;;;;2095263;28;20481;-67
2023/02/24 02:43:31;;;;;;;3.97;3.67;;;;;;;;;;2096507;28;20393;-68
2023/02/24 02:44:54;;;;;;;4.30;3.70;;;;;;;;;;2095112;28;20033;-67
2023/02/24 02:46:33;;;;;;;4.47;4.18;;;;;;;;;;2094503;28;20592;-67
2023/02/24 02:48:00;;;;;;;4.80;4.40;;;;;;;;;;2093216;28;20040;-67
2023/02/24 02:49:25;;;;;;;6.78;4.35;;;;;;;;;;2093478;28;20105;-67
2023/02/24 02:50:53;;;;;;;4.70;4.40;;;;;;;;;;2095695;28;20481;-67
2023/02/24 02:52:16;;;;;;;4.88;4.50;;;;;;;;;;2094973;28;20040;-67
2023/02/24 02:53:42;;;;;;;5.47;4.47;;;;;;;;;;2094967;28;20024;-67
2023/02/24 02:55:13;;;;;;;5.07;4.65;;;;;;;;;;2095286;28;20381;-67
2023/02/24 02:56:32;;;;;;;4.20;3.90;;;;;;;;;;2091988;28;20048;-67
2023/02/24 02:57:53;;;;;;;4.60;4.30;;;;;;;;;;2095927;28;20040;-68
2023/02/24 02:59:15;;;;;;;4.82;4.20;;;;;;;;;;2096296;28;20432;-67
2023/02/24 03:00:37;;;;;;;4.88;4.07;;;;;;;;;;2093400;28;20029;-67
2023/02/24 03:02:10;;;;;;;5.18;4.50;;;;;;;;;;2093885;28;20021;-67
2023/02/24 03:03:31;;;;;;;5.70;4.55;;;;;;;;;;2093659;28;20036;-67
2023/02/24 03:04:51;;;;;;;5.25;4.78;;;;;;;;;;2095867;28;20016;-68
2023/02/24 03:06:21;;;;;;;5.55;5.15;;;;;;;;;;2093303;28;20017;-67
2023/02/24 03:07:41;;;;;;;5.35;4.95;;;;;;;;;;2095497;28;20055;-67
2023/02/24 03:09:11;;;;;;;5.20;4.80;;;;;;;;;;2093953;28;20424;-67
2023/02/24 03:10:33;;;;;;;5.40;5.00;;;;;;;;;;2094283;28;20024;-68
2023/02/24 03:11:54;;;;;;;5.75;5.35;;;;;;;;;;2096550;28;20040;-69
2023/02/24 03:13:15;;;;;;;6.00;5.50;;;;;;;;;;2090615;28;20580;-68
2023/02/24 03:14:36;;;;;;;6.40;5.50;;;;;;;;;;2095020;28;20436;-68
2023/02/24 03:15:58;;;;;;;5.78;5.07;;;;;;;;;;2095530;28;20107;-67
2023/02/24 03:17:21;;;;;;;5.68;5.18;;;;;;;;;;2094397;28;20037;-68
2023/02/24 03:18:43;;;;;;;6.18;5.68;;;;;;;;;;2095326;28;20037;-68
2023/02/24 03:20:12;;;;;;;5.80;5.30;;;;;;;;;;2092872;28;20024;-68
2023/02/24 03:21:31;;;;;;;5.95;5.45;;;;;;;;;;2095239;28;20029;-68
2023/02/24 03:22:51;;;;;;;5.35;4.95;;;;;;;;;;2096320;28;20469;-68
2023/02/24 03:24:10;;;;;;;5.68;5.20;;;;;;;;;;2093722;28;20670;-68
2023/02/24 03:25:45;;;;;;;5.50;5.05;;;;;;;;;;2094620;28;20213;-68
2023/02/24 03:27:11;;;;;;;6.15;4.97;;;;;;;;;;2093632;28;20439;-68
2023/02/24 03:28:36;;;;;;;5.88;5.38;;;;;;;;;;2091579;28;20037;-68
2023/02/24 03:30:06;;;;;;;5.15;4.75;;;;;;;;;;2096134;28;20032;-68
2023/02/24 03:31:27;;;;;;;5.82;5.32;;;;;;;;;;2095573;28;20107;-67
2023/02/24 03:32:55;;;;;;;8.40;5.10;;;;;;;;;;2094202;28;20040;-68
2023/02/24 03:34:17;;;;;;;5.03;4.63;;;;;;;;;;2095860;28;20484;-68
2023/02/24 03:35:38;;;;;;;5.35;4.90;;;;;;;;;;2094162;28;20020;-68
2023/02/24 03:36:57;;;;;;;5.68;5.18;;;;;;;;;;2094787;28;20052;-68
2023/02/24 03:38:16;;;;;;;5.28;4.88;;;;;;;;;;2094365;28;20033;-66
2023/02/24 03:39:35;;;;;;;5.65;5.15;;;;;;;;;;2094438;28;20103;-65
2023/02/24 03:40:54;;;;;;;5.07;4.57;;;;;;;;;;2095644;28;20032;-65
2023/02/24 03:42:17;;;;;;;5.43;4.93;;;;;;;;;;2101722;28;20024;-65
2023/02/24 03:43:36;;;;;;;;;;;;;;;;;;2099055;28;20481;-66
2023/02/24 03:44:57;;;;;;;5.20;4.80;;;;;;;;;;2096532;28;19912;-65
2023/02/24 03:46:16;;;;;;;5.65;5.15;;;;;;;;;;2095628;28;20033;-67
2023/02/24 03:47:35;;;;;;;5.50;4.90;;;;;;;;;;2094256;28;20029;-65
2023/02/24 03:48:58;;;;;;;5.53;5.03;;;;;;;;;;2095191;28;20028;-66
2023/02/24 03:50:16;;;;;;;;;;;;;;;;;;2090290;28;20126;-65
2023/02/24 03:51:36;;;;;;;5.40;5.00;;;;;;;;;;2092775;28;19912;-69
2023/02/24 03:53:00;;;;;;;4.93;4.53;;;;;;;;;;2095686;28;20083;-66
2023/02/24 03:54:41;;;;;;;5.32;4.93;;;;;;;;;;2093598;28;20389;-66
2023/02/24 03:56:09;;;;;;;5.05;4.65;;;;;;;;;;2086194;28;20029;-66
2023/02/24 03:57:59;;;;;;;5.55;5.05;;;;;;;;;;2092393;28;20029;-66
2023/02/24 03:59:26;;;;;;;4.32;3.92;;;;;;;;;;2095256;28;20017;-66
2023/02/24 04:00:52;;;;;;;4.60;4.22;;;;;;;;;;2094926;28;20024;-66
2023/02/24 04:02:16;;;;;;;5.00;4.60;;;;;;;;;;2084548;28;20026;-66
2023/02/24 04:03:48;;;;;;;5.15;4.75;;;;;;;;;;2092255;28;20029;-67
2023/02/24 04:05:36;;;;;;;4.78;4.32;;;;;;;;;;2095433;28;20029;-66
2023/02/24 04:07:01;;;;;;;4.65;4.20;;;;;;;;;;2087580;28;20020;-67
2023/02/24 04:08:22;;;;;;;5.30;4.90;;;;;;;;;;2095956;28;20028;-68
2023/02/24 04:09:55;;;;;;;5.32;4.93;;;;;;;;;;2093589;28;20027;-66
2023/02/24 04:11:24;;;;;;;4.97;4.50;;;;;;;;;;2094471;28;20137;-66
2023/02/24 04:12:52;;;;;;;5.47;4.45;;;;;;;;;;2093374;28;20123;-66
2023/02/24 04:14:17;;;;;;;4.80;4.35;;;;;;;;;;2095203;28;20100;-66
2023/02/24 04:15:42;;;;;;;4.80;4.40;;;;;;;;;;2095831;28;20028;-66
2023/02/24 04:17:06;;;;;;;5.07;4.68;;;;;;;;;;2094364;28;20033;-66
2023/02/24 04:18:26;;;;;;;5.00;4.50;;;;;;;;;;2096122;28;20036;-66
2023/02/24 04:19:47;;;;;;;4.43;4.13;;;;;;;;;;2086228;28;20037;-66
2023/02/24 04:21:06;;;;;;;4.80;4.47;;;;;;;;;;2090976;28;20020;-66
2023/02/24 04:22:26;;;;;;;4.60;4.20;;;;;;;;;;2095085;28;20496;-66
2023/02/24 04:23:45;;;;;;;5.05;4.75;;;;;;;;;;2093973;28;20123;-66
2023/02/24 04:25:12;;;;;;;4.45;4.05;;;;;;;;;;2095802;28;20032;-66
2023/02/24 04:26:31;;;;;;;4.75;4.45;;;;;;;;;;2094614;28;20025;-66
2023/02/24 04:27:51;;;;;;;4.82;4.22;;;;;;;;;;2094391;28;20424;-66
2023/02/24 04:29:16;;;;;;;5.25;4.85;;;;;;;;;;2094109;28;20033;-67
2023/02/24 04:30:37;;;;;;;5.20;4.75;;;;;;;;;;2094761;28;20024;-67
2023/02/24 04:31:59;;;;;;;5.82;5.32;;;;;;;;;;2093341;28;20115;-67
2023/02/24 04:33:19;;;;;;;5.60;5.20;;;;;;;;;;2096733;28;20029;-68
2023/02/24 04:34:39;;;;;;;6.28;5.72;;;;;;;;;;2093507;28;20025;-67
2023/02/24 04:35:58;;;;;;;5.70;5.20;;;;;;;;;;2094906;28;20024;-67
2023/02/24 04:37:21;;;;;;;5.95;5.45;;;;;;;;;;2091944;28;20032;-67
2023/02/24 04:38:40;;;;;;;6.18;5.07;;;;;;;;;;2093737;28;20283;-67
2023/02/24 04:40:00;;;;;;;5.90;5.30;;;;;;;;;;2095853;28;20029;-67
2023/02/24 04:41:21;;;;;;;5.88;5.47;;;;;;;;;;2094914;28;20025;-67
2023/02/24 04:42:45;;;;;;;5.80;5.30;;;;;;;;;;2094635;28;20024;-66
2023/02/24 04:44:04;;;;;;;6.22;5.70;;;;;;;;;;2084935;28;20457;-66
2023/02/24 04:45:23;;;;;;;5.88;5.45;;;;;;;;;;2090901;28;20108;-66
2023/02/24 04:46:42;;;;;;;6.47;5.88;;;;;;;;;;2085927;28;20025;-66
2023/02/24 04:48:02;;;;;;;6.07;5.50;;;;;;;;;;2091129;28;20413;-66
2023/02/24 04:49:21;;;;;;;7.10;6.40;;;;;;;;;;2093536;28;20025;-66
2023/02/24 04:50:41;;;;;;;7.07;6.38;;;;;;;;;;2096500;28;20115;-66
2023/02/24 04:52:01;;;;;;;5.82;5.32;;;;;;;;;;2095782;28;20037;-66
2023/02/24 04:53:25;;;;;;;6.68;6.05;;;;;;;;;;2097182;28;20115;-68
2023/02/24 04:54:44;;;;;;;8.57;6.68;;;;;;;;;;2095216;28;20029;-66
2023/02/24 04:56:07;;;;;;;7.05;6.45;;;;;;;;;;2096599;28;20021;-67
2023/02/24 04:57:26;;;;;;;;;;;;;;;;;;2095956;28;20032;-66
2023/02/24 04:58:45;;;;;;;7.05;6.28;;;;;;;;;;2094953;28;19904;-66
2023/02/24 05:00:19;;;;;;;6.97;6.28;;;;;;;;;;2096679;28;20501;-66
2023/02/24 05:01:39;;;;;;;6.70;6.10;;;;;;;;;;2095821;28;20029;-68
2023/02/24 05:03:00;;;;;;;6.70;6.05;;;;;;;;;;2096508;28;20029;-66
2023/02/24 05:04:19;;;;;;;6.57;6.00;;;;;;;;;;2096176;28;20428;-66
2023/02/24 05:05:38;;;;;;;7.97;7.18;;;;;;;;;;2095612;28;20116;-66
2023/02/24 05:06:57;;;;;;;7.80;7.07;;;;;;;;;;2097365;28;20028;-66
2023/02/24 05:08:16;;;;;;;7.68;6.97;;;;;;;;;;2093592;28;20048;-66
2023/02/24 05:09:35;;;;;;;7.43;6.80;;;;;;;;;;2097048;28;20036;-67
2023/02/24 05:10:55;;;;;;;8.77;7.88;;;;;;;;;;2096555;28;20060;-67
2023/02/24 05:12:14;;;;;;;9.85;8.05;;;;;;;;;;2095698;28;20025;-66
2023/02/24 05:13:33;;;;;;;7.43;6.70;;;;;;;;;;2097163;28;20032;-67
2023/02/24 05:14:53;;;;;;;8.23;7.43;;;;;;;;;;2096729;28;20481;-66
2023/02/24 05:16:14;;;;;;;7.30;6.60;;;;;;;;;;2095834;28;20107;-66
2023/02/24 05:17:34;;;;;;;6.78;6.07;;;;;;;;;;2097582;28;20540;-66
2023/02/24 05:19:47;;;;;;;7.13;6.43;;;;;;;;;;2097087;28;20029;-66
2023/02/24 05:22:16;;;;;;;7.45;6.65;;;;;;;;;;2096125;28;20412;-67
2023/02/24 05:23:38;;;;;;;5.95;5.50;;;;;;;;;;2094313;28;20064;-66
2023/02/24 05:24:56;;;;;;;6.90;6.28;;;;;;;;;;2087610;28;20425;-66
2023/02/24 05:26:17;;;;;;;6.93;6.22;;;;;;;;;;2092919;28;20036;-66
2023/02/24 05:27:37;;;;;;;7.68;6.78;;;;;;;;;;2097087;28;20063;-67
2023/02/24 05:28:58;;;;;;;6.70;6.10;;;;;;;;;;2097482;28;20497;-66
2023/02/24 05:30:17;;;;;;;6.55;5.70;;;;;;;;;;2096706;28;20029;-66
2023/02/24 05:31:37;;;;;;;6.18;5.65;;;;;;;;;;2094445;28;20029;-66
2023/02/24 05:32:57;;;;;;;5.97;5.45;;;;;;;;;;2094843;28;20017;-66
2023/02/24 05:34:16;;;;;;;6.00;5.50;;;;;;;;;;2096596;28;20025;-66
2023/02/24 05:35:35;;;;;;;6.07;5.57;;;;;;;;;;2096198;28;20036;-67
2023/02/24 05:36:55;;;;;;;6.95;5.28;;;;;;;;;;2095453;28;20037;-66
2023/02/24 05:38:18;;;;;;;5.18;4.78;;;;;;;;;;2094430;28;20096;-67
2023/02/24 05:39:37;;;;;;;5.55;5.00;;;;;;;;;;2087702;28;20025;-67
2023/02/24 05:41:03;;;;;;;5.55;5.15;;;;;;;;;;2091207;28;20021;-67
2023/02/24 05:42:22;;;;;;;5.45;5.05;;;;;;;;;;2093619;28;20393;-67
2023/02/24 05:43:51;;;;;;;5.15;4.72;;;;;;;;;;2095027;28;20028;-66
2023/02/24 05:45:11;;;;;;;5.32;4.93;;;;;;;;;;2095113;28;20103;-66
2023/02/24 05:46:32;;;;;;;4.93;4.53;;;;;;;;;;2093107;28;20033;-66
2023/02/24 05:47:53;;;;;;;6.07;5.03;;;;;;;;;;2095298;28;20124;-66
2023/02/24 05:49:13;;;;;;;5.75;5.25;;;;;;;;;;2096441;28;20455;-66
2023/02/24 05:50:31;;;;;;;4.40;4.10;;;;;;;;;;2094917;28;20028;-67
2023/02/24 05:51:54;;;;;;;4.90;4.43;;;;;;;;;;2095250;28;20041;-66
2023/02/24 05:53:14;;;;;;;4.65;4.35;;;;;;;;;;2093009;28;20028;-66
2023/02/24 05:54:35;;;;;;;4.15;3.75;;;;;;;;;;2093047;28;21095;-65
2023/02/24 05:55:54;;;;;;;4.20;3.85;;;;;;;;;;2086699;28;20045;-67
2023/02/24 05:57:16;;;;;;;3.78;3.40;;;;;;;;;;2089606;28;20088;-67
2023/02/24 05:58:38;;;;;;;4.00;3.70;;;;;;;;;;2086283;28;20048;-66
2023/02/24 05:59:57;;;;;;;3.80;3.55;;;;;;;;;;2093306;28;20024;-66
2023/02/24 06:01:20;;;;;;;4.35;3.95;;;;;;;;;;2095131;28;20033;-67
2023/02/24 06:02:41;;;;;;;3.65;3.35;;;;;;;;;;2096973;28;20029;-66
2023/02/24 06:04:04;;;;;;;4.32;4.03;;;;;;;;;;2091063;28;20021;-66
2023/02/24 06:05:27;;;;;;;;;;;;;;;;;;2096348;28;20024;-66
2023/02/24 06:06:53;;;;;;;8.27;6.47;;;;;;;;;;2092645;28;19917;-66
2023/02/24 06:08:12;;;;;;;12.13;8.55;;;;;;;;;;2094097;28;20028;-66
2023/02/24 06:09:31;;;;;;;4.82;4.00;;;;;;;;;;2096117;28;20033;-66
2023/02/24 06:10:50;;;;;;;4.22;3.85;;;;;;;;;;2094818;28;20041;-66
2023/02/24 06:12:10;;;;;;;4.20;3.90;;;;;;;;;;2092064;28;20397;-66
2023/02/24 06:13:29;;;;;;;3.97;3.67;;;;;;;;;;2093638;28;20420;-67
2023/02/24 06:14:48;;;;;;;3.45;3.15;;;;;;;;;;2092234;28;20032;-65
2023/02/24 06:16:11;;;;;;;3.55;3.25;;;;;;;;;;2096321;28;20763;-66
2023/02/24 06:17:30;;;;;;;;;;;;;;;;;;2095832;28;20485;-66
2023/02/24 06:18:49;;;;;;;3.38;3.17;;;;;;;;;;2095599;28;19904;-66
2023/02/24 06:20:14;;;;;;;3.88;3.17;;;;;;;;;;2095810;28;20029;-66
2023/02/24 06:21:34;;;;;;;3.58;3.28;;;;;;;;;;2094983;28;20032;-68
2023/02/24 06:22:56;;;;;;;4.00;3.70;;;;;;;;;;2091536;28;20392;-67
2023/02/24 06:24:16;;;;;;;3.40;3.20;;;;;;;;;;2093266;28;20497;-67
2023/02/24 06:25:38;;;;;;;3.53;3.22;;;;;;;;;;2094448;28;20032;-66
2023/02/24 06:27:08;;;;;;;4.00;3.70;;;;;;;;;;2094017;28;20397;-67
2023/02/24 06:28:27;;;;;;;3.58;3.30;;;;;;;;;;2094515;28;20501;-67
2023/02/24 06:29:50;;;;;;;3.20;3.00;;;;;;;;;;2095843;28;20032;-66
2023/02/24 06:31:09;;;;;;;3.25;3.03;;;;;;;;;;2093511;28;20497;-66
2023/02/24 06:32:28;;;;;;;4.35;4.00;;;;;;;;;;2083685;28;20041;-66
2023/02/24 06:33:47;;;;;;;3.85;3.55;;;;;;;;;;2088317;28;20028;-67
2023/02/24 06:35:07;;;;;;;3.90;3.60;;;;;;;;;;2093088;28;20029;-67
2023/02/24 06:36:26;;;;;;;3.13;2.83;;;;;;;;;;2094062;28;20028;-67
2023/02/24 06:37:45;;;;;;;2.72;2.53;;;;;;;;;;2096505;28;20446;-67
2023/02/24 06:39:09;;;;;;;3.47;2.63;;;;;;;;;;2095018;28;20017;-67
2023/02/24 06:40:28;;;;;;;2.70;2.50;;;;;;;;;;2094429;28;20167;-67
2023/02/24 06:41:48;;;;;;;2.45;2.30;;;;;;;;;;2095556;28;20029;-67
2023/02/24 06:43:08;;;;;;;2.45;2.25;;;;;;;;;;2096118;28;20496;-67
2023/02/24 06:44:27;;;;;;;3.22;2.10;;;;;;;;;;2096272;28;20037;-67
2023/02/24 06:45:46;;;;;;;2.25;2.13;;;;;;;;;;2095586;28;20119;-67
2023/02/24 06:47:06;;;;;;;1.92;1.83;;;;;;;;;;2092397;28;20029;-67
2023/02/24 06:48:26;;;;;;;1.88;1.77;;;;;;;;;;2089414;28;20032;-67
2023/02/24 06:49:46;;;;;;;2.03;1.92;;;;;;;;;;2094591;28;20032;-66
2023/02/24 06:51:06;;;;;;;1.90;1.75;;;;;;;;;;2094253;28;20028;-67
2023/02/24 06:52:25;;;;;;;1.88;1.77;;;;;;;;;;2093558;28;20756;-67
2023/02/24 06:53:44;;;;;;;1.60;1.50;;;;;;;;;;2094854;28;20076;-67
2023/02/24 06:55:04;;;;;;;1.42;1.33;;;;;;;;;;2089814;28;20159;-67
2023/02/24 06:56:24;;;;;;;1.50;1.38;;;;;;;;;;2092565;28;20020;-67
2023/02/24 06:57:43;;;;;;;1.98;1.20;;;;;;;;;;2092066;28;20036;-67
2023/02/24 06:59:05;;;;;;;1.42;1.33;;;;;;;;;;2095020;28;20459;-67
2023/02/24 07:00:35;;;;;;;2.08;1.98;;;;;;;;;;2095464;28;20443;-67
2023/02/24 07:01:55;;;;;;;1.95;1.73;;;;;;;;;;2092739;28;20028;-67
2023/02/24 07:03:15;;;;;;;1.50;1.40;;;;;;;;;;2093649;28;20060;-67
2023/02/24 07:04:42;;;;;;;2.15;2.05;;;;;;;;;;2089501;28;20025;-67
2023/02/24 07:06:19;;;;;;;2.25;2.13;;;;;;;;;;2093651;28;20028;-67
2023/02/24 07:07:38;;;;;;;2.20;2.10;;;;;;;;;;2094512;28;20025;-67
2023/02/24 07:08:57;;;;;;;2.30;2.10;;;;;;;;;;2094806;28;20028;-67
2023/02/24 07:10:17;;;;;;;2.10;2.00;;;;;;;;;;2095169;28;20032;-67
2023/02/24 07:11:36;;;;;;;2.17;1.98;;;;;;;;;;2094935;28;20029;-67
2023/02/24 07:12:57;;;;;;;2.55;2.35;;;;;;;;;;2096337;28;20036;-67
2023/02/24 07:14:21;;;;;;;2.38;2.17;;;;;;;;;;2096109;28;20025;-67
2023/02/24 07:15:40;;;;;;;1.80;1.70;;;;;;;;;;2093711;28;20100;-67
2023/02/24 07:16:59;;;;;;;2.42;2.22;;;;;;;;;;2095110;28;20191;-67
2023/02/24 07:18:18;;;;;;;2.22;2.13;;;;;;;;;;2094633;28;20477;-67
2023/02/24 07:19:37;;;;;;;2.58;2.38;;;;;;;;;;2094397;28;20115;-67
2023/02/24 07:21:03;;;;;;;2.17;2.08;;;;;;;;;;2095836;28;20377;-67
2023/02/24 07:22:23;;;;;;;2.28;2.17;;;;;;;;;;2095103;28;20033;-67
2023/02/24 07:23:44;;;;;;;2.80;2.60;;;;;;;;;;2095431;28;20119;-67
2023/02/24 07:25:03;;;;;;;2.47;2.28;;;;;;;;;;2096071;28;20051;-67
2023/02/24 07:26:23;;;;;;;2.90;2.38;;;;;;;;;;2094248;28;20473;-67
2023/02/24 07:27:42;;;;;;;2.35;2.15;;;;;;;;;;2094019;28;20044;-66
2023/02/24 07:29:05;;;;;;;2.83;2.60;;;;;;;;;;2094990;28;20032;-67
2023/02/24 07:30:24;;;;;;;2.60;2.40;;;;;;;;;;2093957;28;20029;-67
2023/02/24 07:31:44;;;;;;;2.75;2.55;;;;;;;;;;2094686;28;20021;-67
2023/02/24 07:33:02;;;;;;;3.03;2.63;;;;;;;;;;2095302;28;20464;-65
2023/02/24 07:34:24;;;;;;;3.97;2.40;;;;;;;;;;2094958;28;20107;-65
2023/02/24 07:35:47;;;;;;;2.55;2.17;;;;;;;;;;2094447;28;20119;-66
2023/02/24 07:37:07;;;;;;;2.33;2.17;;;;;;;;;;2093141;28;20044;-65
2023/02/24 07:38:26;;;;;;;3.15;2.53;;;;;;;;;;2093355;28;20032;-66
2023/02/24 07:39:46;;;;;;;4.95;2.55;;;;;;;;;;2096003;28;20077;-66
2023/02/24 07:41:05;;;;;;;3.03;2.63;;;;;;;;;;2095689;28;20032;-65
2023/02/24 07:42:25;;;;;;;2.50;2.30;;;;;;;;;;2093875;28;20028;-66
2023/02/24 07:43:45;;;;;;;2.35;2.20;;;;;;;;;;2093618;28;20033;-66
2023/02/24 07:45:04;;;;;;;2.55;2.35;;;;;;;;;;2094445;28;20032;-65
2023/02/24 07:46:24;;;;;;;2.65;2.40;;;;;;;;;;2095560;28;20028;-66
2023/02/24 07:47:44;;;;;;;3.00;2.80;;;;;;;;;;2094360;28;22141;-65
2023/02/24 07:49:03;;;;;;;2.65;2.45;;;;;;;;;;2093721;28;20111;-66
2023/02/24 07:50:22;;;;;;;2.65;2.45;;;;;;;;;;2094063;28;20029;-66
2023/02/24 07:51:41;;;;;;;3.35;3.05;;;;;;;;;;2093766;28;20439;-66
2023/02/24 07:53:03;;;;;;;4.03;2.60;;;;;;;;;;2094784;28;20036;-66
2023/02/24 07:54:24;;;;;;;2.88;2.60;;;;;;;;;;2094666;28;20028;-65
2023/02/24 07:55:42;;;;;;;2.92;2.72;;;;;;;;;;2094643;28;20029;-65
2023/02/24 07:57:02;;;;;;;2.80;2.60;;;;;;;;;;2094323;28;20115;-66
2023/02/24 07:58:22;;;;;;;2.53;2.33;;;;;;;;;;2093530;28;20432;-65
2023/02/24 07:59:43;;;;;;;2.97;2.78;;;;;;;;;;2095467;28;20033;-66
2023/02/24 08:01:07;;;;;;;3.25;3.03;;;;;;;;;;2094192;28;20032;-65
2023/02/24 08:02:28;;;;;;;2.88;2.38;;;;;;;;;;2094140;28;20028;-66
2023/02/24 08:03:51;;;;;;;2.85;2.65;;;;;;;;;;2094794;28;20029;-65
2023/02/24 08:05:10;;;;;;;3.60;2.55;;;;;;;;;;2094359;28;20032;-66
2023/02/24 08:06:36;;;;;;;3.42;3.00;;;;;;;;;;2096558;28;20432;-65
2023/02/24 08:07:55;;;;;;;2.97;2.75;;;;;;;;;;2093444;28;20037;-65
2023/02/24 08:09:16;;;;;;;2.63;2.42;;;;;;;;;;2095576;28;20033;-65
2023/02/24 08:10:36;;;;;;;5.78;2.53;;;;;;;;;;2093939;28;20033;-65
2023/02/24 08:11:55;;;;;;;2.95;2.75;;;;;;;;;;2095115;28;20055;-66
2023/02/24 08:13:14;;;;;;;2.97;2.78;;;;;;;;;;2095798;28;20040;-66
2023/02/24 08:14:33;;;;;;;2.63;2.42;;;;;;;;;;2094152;28;20532;-66
2023/02/24 08:15:55;;;;;;;3.00;2.80;;;;;;;;;;2093821;28;20094;-66
2023/02/24 08:17:18;;;;;;;3.33;3.00;;;;;;;;;;2094143;28;20512;-65